createdAt,value
2022-11-19T00:00:17.621Z,21.50
2022-11-19T00:03:03.628Z,23.30
2022-11-19T00:05:32.504Z,19.40
2022-11-19T00:08:01.358Z,20.50
2022-11-19T00:10:30.185Z,21.70
2022-11-19T00:12:59.064Z,22.40
2022-11-19T00:15:27.915Z,22.20
2022-11-19T00:17:58.305Z,21.60
2022-11-19T00:20:27.970Z,21.80
2022-11-19T00:22:57.903Z,23.00
2022-11-19T00:25:28.132Z,19.90
2022-11-19T00:27:58.929Z,21.70
2022-11-19T00:30:46.795Z,18.20
2022-11-19T00:33:16.809Z,20.70
2022-11-19T00:35:45.822Z,19.70
2022-11-19T00:38:14.804Z,19.40
2022-11-19T00:40:46.207Z,20.60
2022-11-19T00:43:33.394Z,20.90
2022-11-19T00:46:02.239Z,20.10
2022-11-19T00:48:34.036Z,20.20
2022-11-19T00:51:03.007Z,20.00
2022-11-19T00:53:31.880Z,17.90
2022-11-19T00:56:02.387Z,20.50
2022-11-19T00:58:31.365Z,18.70
2022-11-19T01:01:00.319Z,20.20
2022-11-19T01:03:29.449Z,20.60
2022-11-19T01:05:58.359Z,19.00
2022-11-19T01:08:27.376Z,21.20
2022-11-19T01:10:56.395Z,21.30
2022-11-19T01:13:34.587Z,21.40
2022-11-19T01:16:06.180Z,21.90
2022-11-19T01:18:35.680Z,22.80
2022-11-19T01:21:05.745Z,20.60
2022-11-19T01:30:13.816Z,24.30
2022-11-19T01:32:46.073Z,23.10
2022-11-19T01:35:18.687Z,23.70
2022-11-19T01:40:21.785Z,23.40
2022-11-19T01:45:31.989Z,24.70
2022-11-19T01:48:08.012Z,25.50
2022-11-19T01:50:46.042Z,24.90
2022-11-19T01:53:19.685Z,25.70
2022-11-19T01:55:52.814Z,24.30
2022-11-19T01:58:27.076Z,25.60
2022-11-19T02:00:59.636Z,23.50
2022-11-19T02:03:33.584Z,25.60
2022-11-19T02:06:07.327Z,24.90
2022-11-19T02:08:43.493Z,24.70
2022-11-19T02:11:35.736Z,26.70
2022-11-19T02:14:20.632Z,23.50
2022-11-19T02:16:57.530Z,24.10
2022-11-19T02:19:53.051Z,24.30
2022-11-19T02:22:38.371Z,24.10
2022-11-19T02:25:15.584Z,26.70
2022-11-19T02:28:04.859Z,26.10
2022-11-19T02:30:38.698Z,25.80
2022-11-19T02:33:14.680Z,25.10
2022-11-19T02:35:51.191Z,24.10
2022-11-19T02:38:32.273Z,25.30
2022-11-19T02:41:30.080Z,24.90
2022-11-19T02:44:25.631Z,24.20
2022-11-19T02:46:58.780Z,23.50
2022-11-19T02:49:33.082Z,24.90
2022-11-19T02:52:06.695Z,23.00
2022-11-19T02:54:39.012Z,22.70
2022-11-19T02:57:13.229Z,24.00
2022-11-19T03:00:06.425Z,23.10
2022-11-19T03:02:58.244Z,24.00
2022-11-19T03:05:32.691Z,24.90
2022-11-19T03:08:05.633Z,26.40
2022-11-19T03:10:44.402Z,26.00
2022-11-19T03:13:36.381Z,28.30
2022-11-19T03:16:29.012Z,26.10
2022-11-19T03:19:04.716Z,25.50
2022-11-19T03:21:40.563Z,23.60
2022-11-19T03:24:17.148Z,27.30
2022-11-19T03:26:53.108Z,28.70
2022-11-19T03:29:25.932Z,26.10
2022-11-19T03:32:03.579Z,26.70
2022-11-19T03:34:36.709Z,24.60
2022-11-19T03:37:10.351Z,28.30
2022-11-19T03:39:43.292Z,29.00
2022-11-19T03:42:16.192Z,26.40
2022-11-19T03:44:51.660Z,26.80
2022-11-19T03:47:27.977Z,25.40
2022-11-19T03:50:02.696Z,24.80
2022-11-19T03:52:35.120Z,24.20
2022-11-19T03:55:08.709Z,25.20
2022-11-19T03:57:41.033Z,24.20
2022-11-19T04:00:14.640Z,24.30
2022-11-19T04:02:46.848Z,24.40
2022-11-19T04:05:19.188Z,22.10
2022-11-19T04:07:51.433Z,22.80
2022-11-19T04:10:24.396Z,21.30
2022-11-19T04:12:56.598Z,21.10
2022-11-19T04:15:28.771Z,22.60
2022-11-19T04:18:00.980Z,19.30
2022-11-19T04:20:33.102Z,21.30
2022-11-19T04:23:05.350Z,22.00
2022-11-19T04:25:38.141Z,19.20
2022-11-19T04:28:10.309Z,21.70
2022-11-19T04:30:42.764Z,23.30
2022-11-19T04:33:14.947Z,20.80
2022-11-19T04:35:49.071Z,20.40
2022-11-19T04:38:21.382Z,19.20
2022-11-19T04:40:53.661Z,21.30
2022-11-19T04:43:26.022Z,21.90
2022-11-19T04:45:58.179Z,23.20
2022-11-19T04:48:30.391Z,19.70
2022-11-19T04:51:02.572Z,18.00
2022-11-19T04:53:34.746Z,16.90
2022-11-19T04:56:07.576Z,17.20
2022-11-19T04:58:39.759Z,16.90
2022-11-19T05:01:11.923Z,16.90
2022-11-19T05:03:44.104Z,16.70
2022-11-19T05:06:16.256Z,15.40
2022-11-19T05:08:48.443Z,16.00
2022-11-19T05:11:20.725Z,15.50
2022-11-19T05:13:52.922Z,15.00
2022-11-19T05:16:25.070Z,15.30
2022-11-19T05:18:57.290Z,13.50
2022-11-19T05:21:29.505Z,13.00
2022-11-19T05:24:01.735Z,13.10
2022-11-19T05:26:34.043Z,13.30
2022-11-19T05:29:06.341Z,13.80
2022-11-19T05:31:38.543Z,13.30
2022-11-19T05:34:11.010Z,13.80
2022-11-19T05:36:43.145Z,13.90
2022-11-19T05:39:21.525Z,14.80
2022-11-19T05:41:54.495Z,12.80
2022-11-19T05:44:26.773Z,13.00
2022-11-19T05:46:59.959Z,13.30
2022-11-19T05:49:32.144Z,12.90
2022-11-19T05:52:04.521Z,12.90
2022-11-19T05:54:36.891Z,12.80
2022-11-19T05:57:09.056Z,11.70
2022-11-19T05:59:44.079Z,11.30
2022-11-19T06:02:16.529Z,11.70
2022-11-19T06:04:49.305Z,11.50
2022-11-19T06:07:21.572Z,11.50
2022-11-19T06:09:53.785Z,11.90
2022-11-19T06:12:25.968Z,9.30
2022-11-19T06:14:58.248Z,10.80
2022-11-19T06:17:30.430Z,10.20
2022-11-19T06:20:02.751Z,9.40
2022-11-19T06:22:34.998Z,9.50
2022-11-19T06:25:08.929Z,8.20
2022-11-19T06:27:41.221Z,8.60
2022-11-19T06:30:16.306Z,9.20
2022-11-19T06:32:48.696Z,9.10
2022-11-19T06:35:21.062Z,9.20
2022-11-19T06:37:53.518Z,8.60
2022-11-19T06:40:25.828Z,9.20
2022-11-19T06:42:58.162Z,9.80
2022-11-19T06:45:30.522Z,8.80
2022-11-19T06:48:02.908Z,8.60
2022-11-19T06:50:35.237Z,8.80
2022-11-19T06:53:07.700Z,8.70
2022-11-19T06:55:40.086Z,9.00
2022-11-19T06:58:12.340Z,9.70
2022-11-19T07:00:44.860Z,8.30
2022-11-19T07:03:17.145Z,9.20
2022-11-19T07:05:49.809Z,8.70
2022-11-19T07:08:22.274Z,8.20
2022-11-19T07:10:56.864Z,9.10
2022-11-19T07:13:48.043Z,8.30
2022-11-19T07:16:20.592Z,8.10
2022-11-19T07:21:23.330Z,8.80
2022-11-19T07:23:55.620Z,8.50
2022-11-19T07:26:28.248Z,6.80
2022-11-19T07:31:37.482Z,7.70
2022-11-19T07:34:11.021Z,8.00
2022-11-19T07:36:43.270Z,7.20
2022-11-19T07:39:15.972Z,7.50
2022-11-19T07:42:06.045Z,7.30
2022-11-19T07:44:38.168Z,7.20
2022-11-19T07:47:11.154Z,8.00
2022-11-19T07:49:43.320Z,6.40
2022-11-19T07:52:15.431Z,6.70
2022-11-19T07:54:47.571Z,6.50
2022-11-19T07:57:19.786Z,7.50
2022-11-19T07:59:51.944Z,6.40
2022-11-19T08:02:24.083Z,7.10
2022-11-19T08:04:56.203Z,6.90
2022-11-19T08:07:28.519Z,6.70
2022-11-19T08:10:00.790Z,6.30
2022-11-19T08:12:33.174Z,6.40
2022-11-19T08:15:05.572Z,5.20
2022-11-19T08:17:55.446Z,6.60
2022-11-19T08:20:27.648Z,6.50
2022-11-19T08:22:59.755Z,6.60
2022-11-19T08:25:31.889Z,6.10
2022-11-19T08:28:04.676Z,5.90
2022-11-19T08:30:36.946Z,4.60
2022-11-19T08:33:09.267Z,5.60
2022-11-19T08:35:41.447Z,4.80
2022-11-19T08:38:13.673Z,4.40
2022-11-19T08:40:46.104Z,4.60
2022-11-19T08:43:18.227Z,4.60
2022-11-19T08:45:55.296Z,4.90
2022-11-19T08:48:27.461Z,4.80
2022-11-19T08:50:59.719Z,4.30
2022-11-19T08:53:31.856Z,4.10
2022-11-19T08:56:06.708Z,3.90
2022-11-19T08:58:39.068Z,4.20
2022-11-19T09:01:15.807Z,4.00
2022-11-19T09:03:48.236Z,4.30
2022-11-19T09:06:20.601Z,4.00
2022-11-19T09:08:52.789Z,4.00
2022-11-19T09:11:25.359Z,4.20
2022-11-19T09:13:59.317Z,4.00
2022-11-19T09:16:31.623Z,4.30
2022-11-19T09:19:04.003Z,3.90
2022-11-19T09:21:36.172Z,4.10
2022-11-19T09:24:08.994Z,4.10
2022-11-19T09:26:41.271Z,3.70
2022-11-19T09:29:13.545Z,3.70
2022-11-19T09:31:45.774Z,3.20
2022-11-19T09:34:18.653Z,3.90
2022-11-19T09:36:52.013Z,3.70
2022-11-19T09:39:24.176Z,3.10
2022-11-19T09:41:59.862Z,3.20
2022-11-19T09:44:40.757Z,3.40
2022-11-19T09:47:22.725Z,3.10
2022-11-19T09:50:03.841Z,3.10
2022-11-19T09:52:45.711Z,3.20
2022-11-19T09:55:22.408Z,3.30
2022-11-19T09:57:57.762Z,3.20
2022-11-19T10:00:31.764Z,3.50
2022-11-19T10:03:15.146Z,3.00
2022-11-19T10:05:58.231Z,3.20
2022-11-19T10:08:40.961Z,3.80
2022-11-19T10:11:25.244Z,3.30
2022-11-19T10:14:03.027Z,3.60
2022-11-19T10:16:48.772Z,3.50
2022-11-19T10:19:32.255Z,3.20
2022-11-19T10:22:09.158Z,3.80
2022-11-19T10:24:45.324Z,3.60
2022-11-19T10:27:23.879Z,3.30
2022-11-19T10:29:59.060Z,3.70
2022-11-19T10:32:34.006Z,3.80
2022-11-19T10:35:12.596Z,4.00
2022-11-19T10:37:56.303Z,3.20
2022-11-19T10:40:30.131Z,3.70
2022-11-19T10:43:09.560Z,3.30
2022-11-19T10:45:41.627Z,3.70
2022-11-19T10:48:17.914Z,3.80
2022-11-19T10:50:50.705Z,3.40
2022-11-19T10:53:27.110Z,3.40
2022-11-19T10:56:01.636Z,3.40
2022-11-19T10:58:37.867Z,3.60
2022-11-19T11:01:17.919Z,3.50
2022-11-19T11:03:53.599Z,3.60
2022-11-19T11:06:26.428Z,3.60
2022-11-19T11:08:58.793Z,2.80
2022-11-19T11:11:47.155Z,3.40
2022-11-19T11:14:38.366Z,3.60
2022-11-19T11:17:20.379Z,3.40
2022-11-19T11:20:03.340Z,3.30
2022-11-19T11:22:36.023Z,3.40
2022-11-19T11:25:18.727Z,3.10
2022-11-19T11:30:22.386Z,3.40
2022-11-19T11:32:54.527Z,3.20
2022-11-19T11:35:34.612Z,3.50
2022-11-19T11:38:07.297Z,3.10
2022-11-19T11:40:39.708Z,3.00
2022-11-19T11:43:18.647Z,3.30
2022-11-19T11:45:58.892Z,2.60
2022-11-19T11:48:34.545Z,3.20
2022-11-19T11:51:07.341Z,2.50
2022-11-19T11:53:39.588Z,2.30
2022-11-19T11:56:12.543Z,2.70
2022-11-19T11:58:44.772Z,2.50
2022-11-19T12:01:19.275Z,3.00
2022-11-19T12:03:59.022Z,2.80
2022-11-19T12:06:34.440Z,2.10
2022-11-19T12:09:13.180Z,2.40
2022-11-19T12:11:57.493Z,2.40
2022-11-19T12:14:32.427Z,2.70
2022-11-19T12:17:26.149Z,2.30
2022-11-19T12:20:21.011Z,2.40
2022-11-19T12:23:05.052Z,3.20
2022-11-19T12:25:41.539Z,2.60
2022-11-19T12:28:30.739Z,3.00
2022-11-19T12:31:11.842Z,2.70
2022-11-19T12:33:56.328Z,2.90
2022-11-19T12:36:33.523Z,2.90
2022-11-19T12:39:12.431Z,2.80
2022-11-19T12:41:57.963Z,2.90
2022-11-19T12:44:44.208Z,3.20
2022-11-19T12:47:25.311Z,2.70
2022-11-19T12:51:10.024Z,3.30
2022-11-19T12:53:53.663Z,3.70
2022-11-19T12:56:39.890Z,3.60
2022-11-19T12:59:21.978Z,3.50
2022-11-19T13:01:55.276Z,3.90
2022-11-19T13:04:31.341Z,3.80
2022-11-19T13:07:06.458Z,3.30
2022-11-19T13:09:43.898Z,3.40
2022-11-19T13:12:18.071Z,3.40
2022-11-19T13:14:55.125Z,3.10
2022-11-19T13:17:31.642Z,3.20
2022-11-19T13:20:06.016Z,3.20
2022-11-19T13:22:41.585Z,3.00
2022-11-19T13:25:22.136Z,3.40
2022-11-19T13:27:56.162Z,3.40
2022-11-19T13:30:29.580Z,4.40
2022-11-19T13:33:06.833Z,5.20
2022-11-19T13:35:45.009Z,6.40
2022-11-19T13:38:22.531Z,5.50
2022-11-19T13:41:10.519Z,5.60
2022-11-19T13:44:00.867Z,6.30
2022-11-19T13:46:36.276Z,5.60
2022-11-19T13:49:12.802Z,6.30
2022-11-19T13:51:47.204Z,5.50
2022-11-19T13:54:27.770Z,5.60
2022-11-19T13:57:01.295Z,5.50
2022-11-19T13:59:38.128Z,4.70
2022-11-19T14:02:39.329Z,5.30
2022-11-19T14:05:38.822Z,6.00
2022-11-19T14:08:25.020Z,5.80
2022-11-19T14:11:10.400Z,6.10
2022-11-19T14:14:00.667Z,5.30
2022-11-19T14:16:56.291Z,4.50
2022-11-19T14:19:46.322Z,5.10
2022-11-19T14:22:52.375Z,5.30
2022-11-19T14:26:03.453Z,5.40
2022-11-19T14:28:47.187Z,6.90
2022-11-19T14:31:20.879Z,6.30
2022-11-19T14:34:08.651Z,6.00
2022-11-19T14:36:46.536Z,6.10
2022-11-19T14:39:23.274Z,6.00
2022-11-19T14:42:15.894Z,5.90
2022-11-19T14:44:48.762Z,5.40
2022-11-19T14:47:35.747Z,6.30
2022-11-19T14:50:10.615Z,7.80
2022-11-19T14:52:54.291Z,9.00
2022-11-19T14:55:27.811Z,9.70
2022-11-19T14:58:02.890Z,8.20
2022-11-19T15:00:38.140Z,7.60
2022-11-19T15:03:15.762Z,6.70
2022-11-19T15:05:49.182Z,6.90
2022-11-19T15:08:48.489Z,6.80
2022-11-19T15:11:21.066Z,8.10
2022-11-19T15:16:44.078Z,8.50
2022-11-19T15:19:26.887Z,7.20
2022-11-19T15:24:53.636Z,6.70
2022-11-19T15:27:39.241Z,7.90
2022-11-19T15:30:16.479Z,8.80
2022-11-19T15:33:17.341Z,7.50
2022-11-19T15:36:09.416Z,7.40
2022-11-19T15:38:43.562Z,7.60
2022-11-19T15:41:20.487Z,7.90
2022-11-19T15:43:54.582Z,7.60
2022-11-19T15:46:35.695Z,7.80
2022-11-19T15:49:14.901Z,7.20
2022-11-19T15:52:09.884Z,7.80
2022-11-19T15:54:44.171Z,7.50
2022-11-19T15:57:24.840Z,8.30
2022-11-19T16:00:01.130Z,7.20
2022-11-19T16:02:37.049Z,8.30
2022-11-19T16:05:17.702Z,7.30
2022-11-19T16:07:50.611Z,8.10
2022-11-19T16:10:27.176Z,7.70
2022-11-19T16:13:19.166Z,6.50
2022-11-19T16:16:10.030Z,8.40
2022-11-19T16:18:53.178Z,8.00
2022-11-19T16:21:28.091Z,7.80
2022-11-19T16:24:18.194Z,7.80
2022-11-19T16:26:50.739Z,8.50
2022-11-19T16:29:24.856Z,8.10
2022-11-19T16:31:59.715Z,8.00
2022-11-19T16:34:34.547Z,7.70
2022-11-19T16:37:06.835Z,9.70
2022-11-19T16:39:39.092Z,11.40
2022-11-19T16:42:18.220Z,12.20
2022-11-19T16:44:52.664Z,15.10
2022-11-19T16:47:27.412Z,16.80
2022-11-19T16:50:04.960Z,19.00
2022-11-19T16:52:42.408Z,15.70
2022-11-19T16:55:43.016Z,21.10
2022-11-19T16:58:19.822Z,21.00
2022-11-19T17:00:54.476Z,21.30
2022-11-19T17:03:35.828Z,22.70
2022-11-19T17:06:19.273Z,20.90
2022-11-19T17:08:59.660Z,21.50
2022-11-19T17:12:07.604Z,20.90
2022-11-19T17:14:57.291Z,20.10
2022-11-19T17:17:44.805Z,21.80
2022-11-19T17:21:00.201Z,21.20
2022-11-19T17:23:34.419Z,20.70
2022-11-19T17:26:08.505Z,19.40
2022-11-19T17:28:45.296Z,21.90
2022-11-19T17:31:23.152Z,21.00
2022-11-19T17:33:56.863Z,21.40
2022-11-19T17:36:29.022Z,21.40
2022-11-19T17:39:01.371Z,21.60
2022-11-19T17:41:52.297Z,20.90
2022-11-19T17:44:35.868Z,21.30
2022-11-19T17:47:22.422Z,20.70
2022-11-19T17:49:55.782Z,17.50
2022-11-19T17:52:29.792Z,18.80
2022-11-19T17:55:29.123Z,21.60
2022-11-19T17:58:01.566Z,19.60
2022-11-19T18:00:34.059Z,20.90
2022-11-19T18:03:06.454Z,19.70
2022-11-19T18:05:44.574Z,20.80
2022-11-19T18:08:18.983Z,20.50
2022-11-19T18:13:25.464Z,25.60
2022-11-19T18:15:58.658Z,25.30
2022-11-19T18:18:31.210Z,24.50
2022-11-19T18:23:39.502Z,24.70
2022-11-19T18:26:15.751Z,24.20
2022-11-19T18:28:49.890Z,23.30
2022-11-19T18:31:23.971Z,25.00
2022-11-19T18:33:57.292Z,25.50
2022-11-19T18:36:32.393Z,25.30
2022-11-19T18:39:04.873Z,22.70
2022-11-19T18:41:38.357Z,24.60
2022-11-19T18:44:33.359Z,23.70
2022-11-19T18:47:07.145Z,23.40
2022-11-19T18:49:40.147Z,21.40
2022-11-19T18:52:15.844Z,21.50
2022-11-19T18:54:48.430Z,20.70
2022-11-19T18:57:23.766Z,18.90
2022-11-19T18:59:56.236Z,19.90
2022-11-19T19:02:28.917Z,19.80
2022-11-19T19:07:32.737Z,20.10
2022-11-19T19:12:45.291Z,19.20
2022-11-19T19:15:31.285Z,22.70
2022-11-19T19:18:07.715Z,19.20
2022-11-19T19:21:04.123Z,17.20
2022-11-19T19:28:20.184Z,18.70
2022-11-19T20:14:14.750Z,12.30
2022-11-19T20:17:09.570Z,10.50
2022-11-19T20:22:33.191Z,9.40
2022-11-19T20:25:09.751Z,12.00
2022-11-19T20:34:44.070Z,10.20
2022-11-19T20:37:31.636Z,11.60
2022-11-19T20:40:05.774Z,9.80
2022-11-19T20:43:21.781Z,11.50
2022-11-19T20:46:01.964Z,11.80
2022-11-19T20:48:40.535Z,10.40
2022-11-19T20:51:22.659Z,11.00
2022-11-19T20:53:58.783Z,11.40
2022-11-19T21:02:41.690Z,12.40
2022-11-19T21:07:45.075Z,12.30
2022-11-19T21:10:17.871Z,13.20
2022-11-19T21:13:02.466Z,13.40
2022-11-19T21:15:37.169Z,13.80
2022-11-19T21:18:09.716Z,14.00
2022-11-19T21:20:42.062Z,13.40
2022-11-19T21:23:14.523Z,12.60
2022-11-19T21:25:46.854Z,13.90
2022-11-19T21:28:19.269Z,14.50
2022-11-19T21:30:55.363Z,14.60
2022-11-19T21:33:28.255Z,13.30
2022-11-19T21:36:01.556Z,13.20
2022-11-19T21:38:34.117Z,12.00
2022-11-19T21:43:37.366Z,13.30
2022-11-19T21:46:11.214Z,13.40
2022-11-19T21:48:43.517Z,13.10
2022-11-19T21:51:20.117Z,12.40
2022-11-19T21:53:57.454Z,12.10
2022-11-19T21:56:36.903Z,11.90
2022-11-19T21:59:11.308Z,12.70
2022-11-19T22:01:43.663Z,11.70
2022-11-19T22:04:16.415Z,11.60
2022-11-19T22:09:19.833Z,11.30
2022-11-19T22:11:52.402Z,9.80
2022-11-19T22:14:25.180Z,12.00
2022-11-19T22:16:57.865Z,10.80
2022-11-19T22:19:30.119Z,11.70
2022-11-19T22:22:03.572Z,11.80
2022-11-19T22:24:35.838Z,12.20
2022-11-19T22:27:08.107Z,11.20
2022-11-19T22:29:40.306Z,12.10
2022-11-19T22:32:12.641Z,12.60
2022-11-19T22:34:44.971Z,11.70
2022-11-19T22:37:17.437Z,11.50
2022-11-19T22:39:49.810Z,11.70
2022-11-19T22:42:22.113Z,12.10
2022-11-19T22:44:54.470Z,13.20
2022-11-19T22:47:26.697Z,12.80
2022-11-19T22:49:59.032Z,12.20
2022-11-19T22:52:31.329Z,12.50
2022-11-19T22:55:03.594Z,12.80
2022-11-19T22:57:35.814Z,13.40
2022-11-19T23:00:13.272Z,14.40
2022-11-19T23:02:45.584Z,12.70
2022-11-19T23:05:18.112Z,13.20
2022-11-19T23:07:50.375Z,13.00
2022-11-19T23:10:22.660Z,12.00
2022-11-19T23:13:12.482Z,12.30
2022-11-19T23:15:44.862Z,14.60
2022-11-19T23:18:17.156Z,13.00
2022-11-19T23:20:49.426Z,13.20
2022-11-19T23:23:21.690Z,14.90
2022-11-19T23:25:58.418Z,13.70
2022-11-19T23:28:32.427Z,13.50
2022-11-19T23:31:07.837Z,14.60
2022-11-19T23:33:40.338Z,13.60
2022-11-19T23:36:15.534Z,15.00
2022-11-19T23:38:48.147Z,15.20
2022-11-19T23:41:21.838Z,14.40
2022-11-19T23:43:56.150Z,14.70
2022-11-19T23:46:30.302Z,15.70
2022-11-19T23:49:02.959Z,16.30
2022-11-19T23:54:07.256Z,14.10
2022-11-19T23:56:39.609Z,15.60
2022-11-19T23:59:11.915Z,16.80
